Time;durP1;ratioP1;P1;durP2;ratioP2;P2;SDS_P1;SDS_P2;PMS_P1;PMS_P2;Temp;Humidity;BMP_temperature;BMP_pressure;BME280_temperature;BME280_humidity;BME280_pressure;Samples;Min_cycle;Max_cycle;Signal;HPM_P1;HPM_P2
2022/08/13 00:00:11;;;;;;;;;;;;;;;27.06;32.17;100303.97;4977519;28;893;-35
2022/08/13 00:02:39;;;;;;;;;;;;;;;27.04;32.07;100300.66;4977282;28;912;-34
2022/08/13 00:05:05;;;;;;;;;;;;;;;27.02;32.32;100292.75;4977793;28;1279;-34
2022/08/13 00:07:30;;;;;;;;;;;;;;;26.98;32.67;100285.16;4977499;28;991;-35
2022/08/13 00:09:56;;;;;;;;;;;;;;;27.17;32.63;100289.13;4977291;28;1169;-35
2022/08/13 00:15:14;;;;;;;;;;;;;;;27.30;32.45;100279.44;4973680;28;1158;-34
2022/08/13 00:17:41;;;;;;;;;;;;;;;27.14;33.02;100281.41;4977976;28;1054;-34
2022/08/13 00:20:07;;;;;;;;;;;;;;;27.06;32.90;100279.66;4977164;28;2387;-34
2022/08/13 00:22:33;;;;;;;;;;;;;;;27.04;33.09;100276.34;4977905;28;960;-35
2022/08/13 00:24:59;;;;;;;;;;;;;;;27.02;32.61;100276.53;4976980;28;983;-34
2022/08/13 00:27:25;;;;;;;;;;;;;;;27.02;32.96;100278.41;4976814;28;849;-35
2022/08/13 00:29:54;;;;;;;;;;;;;;;27.25;32.95;100272.78;4977724;28;996;-35
2022/08/13 00:32:21;;;;;;;;;;;;;;;27.26;33.18;100270.91;4977106;28;1914;-34
2022/08/13 00:34:49;;;;;;;;;;;;;;;27.25;33.12;100271.94;4976961;28;1003;-35
2022/08/13 00:37:14;;;;;;;;;;;;;;;27.21;32.90;100279.59;4974818;28;1043;-34
2022/08/13 00:39:39;;;;;;;;;;;;;;;27.14;33.39;100271.44;4977261;28;1066;-34
2022/08/13 00:42:05;;;;;;;;;;;;;;;27.06;33.14;100279.66;4977176;28;1154;-34
2022/08/13 00:44:31;;;;;;;;;;;;;;;27.05;33.33;100274.47;4977156;28;1138;-34
2022/08/13 00:48:42;;;;;;;;;;;;;;;26.97;33.33;100275.41;4977186;28;1075;-35
2022/08/13 00:49:42;;;;;;;;;;;;;;;27.22;33.19;100280.44;4974236;28;1864;-34
2022/08/13 00:52:10;;;;;;;;;;;;;;;27.25;33.75;100278.19;4976352;28;1895;-34
2022/08/13 00:54:36;;;;;;;;;;;;;;;27.37;33.46;100264.97;4977163;28;1004;-35
2022/08/13 00:57:06;;;;;;;;;;;;;;;27.43;33.30;100279.56;4977123;28;1507;-35
2022/08/13 00:59:32;;;;;;;;;;;;;;;27.49;34.14;100273.34;4977371;28;999;-35
2022/08/13 01:01:57;;;;;;;;;;;;;;;27.61;33.71;100273.66;4977072;28;897;-34
2022/08/13 01:04:23;;;;;;;;;;;;;;;27.59;34.06;100267.59;4976567;28;995;-34
2022/08/13 01:06:48;;;;;;;;;;;;;;;27.66;33.80;100264.94;4977032;28;1185;-34
2022/08/13 01:09:13;;;;;;;;;;;;;;;27.67;34.02;100269.34;4976735;28;964;-35
2022/08/13 01:11:39;;;;;;;;;;;;;;;27.63;33.96;100268.03;4976566;28;1213;-35
2022/08/13 01:14:07;;;;;;;;;;;;;;;27.73;34.32;100263.16;4976857;28;1910;-36
2022/08/13 01:16:36;;;;;;;;;;;;;;;27.66;34.90;100267.63;4975885;28;960;-35
2022/08/13 01:19:03;;;;;;;;;;;;;;;27.74;34.55;100269.41;4974904;28;2248;-36
2022/08/13 01:21:30;;;;;;;;;;;;;;;27.82;34.60;100269.25;4972788;28;1078;-35
2022/08/13 01:23:56;;;;;;;;;;;;;;;27.78;34.77;100265.25;4972441;28;944;-35
2022/08/13 01:26:22;;;;;;;;;;;;;;;27.86;35.33;100270.50;4976375;28;1043;-35
2022/08/13 01:28:48;;;;;;;;;;;;;;;27.76;35.00;100267.31;4976331;28;1216;-34
2022/08/13 01:31:14;;;;;;;;;;;;;;;27.81;35.26;100270.25;4976447;28;1030;-35
2022/08/13 01:33:41;;;;;;;;;;;;;;;27.91;34.75;100269.88;4976248;28;1899;-36
2022/08/13 01:36:06;;;;;;;;;;;;;;;27.82;35.47;100266.53;4976684;28;1083;-35
2022/08/13 01:38:32;;;;;;;;;;;;;;;27.79;35.35;100260.69;4976779;28;1161;-35
2022/08/13 01:40:57;;;;;;;;;;;;;;;27.85;35.50;100268.84;4976239;28;944;-35
2022/08/13 01:43:24;;;;;;;;;;;;;;;27.97;35.61;100269.09;4976680;28;944;-35
2022/08/13 01:45:50;;;;;;;;;;;;;;;27.83;35.69;100257.38;4973676;28;1058;-35
2022/08/13 01:50:59;;;;;;;;;;;;;;;27.79;36.77;100264.25;4977571;28;2541;-34
2022/08/13 01:53:24;;;;;;;;;;;;;;;27.93;35.83;100264.28;4980063;28;1965;-35
2022/08/13 01:55:54;;;;;;;;;;;;;;;27.82;35.82;100269.25;4980110;28;984;-35
2022/08/13 01:58:23;;;;;;;;;;;;;;;27.98;35.87;100267.22;4980193;28;1091;-35
2022/08/13 02:00:49;;;;;;;;;;;;;;;27.91;36.47;100266.38;4980287;28;1019;-36
2022/08/13 02:03:16;;;;;;;;;;;;;;;27.85;36.33;100271.53;4980236;28;1138;-35
2022/08/13 02:05:41;;;;;;;;;;;;;;;27.89;36.48;100260.31;4979540;28;888;-35
2022/08/13 02:08:07;;;;;;;;;;;;;;;27.90;36.41;100261.97;4979634;28;1138;-35
2022/08/13 02:10:33;;;;;;;;;;;;;;;27.99;36.27;100272.41;4979726;28;1019;-35
2022/08/13 02:12:58;;;;;;;;;;;;;;;27.86;36.62;100277.78;4979373;28;1906;-35
2022/08/13 02:15:23;;;;;;;;;;;;;;;27.79;35.94;100277.75;4979615;28;1081;-35
2022/08/13 02:17:49;;;;;;;;;;;;;;;27.66;35.35;100273.03;4979626;28;938;-35
2022/08/13 02:20:17;;;;;;;;;;;;;;;27.50;35.32;100275.03;4973901;28;2336;-34
2022/08/13 02:22:45;;;;;;;;;;;;;;;27.35;35.00;100272.44;4979654;28;964;-35
2022/08/13 02:25:12;;;;;;;;;;;;;;;27.30;34.64;100279.44;4978962;28;1078;-36
2022/08/13 02:27:38;;;;;;;;;;;;;;;27.32;34.63;100274.69;4961301;28;1015;-35
2022/08/13 02:30:04;;;;;;;;;;;;;;;27.26;34.56;100277.16;4979836;28;1059;-35
2022/08/13 02:32:29;;;;;;;;;;;;;;;27.49;34.26;100281.47;4979396;28;1894;-35
2022/08/13 02:34:54;;;;;;;;;;;;;;;27.53;34.51;100273.81;4979419;28;1007;-35
2022/08/13 02:37:21;;;;;;;;;;;;;;;27.54;34.90;100277.34;4978894;28;1177;-35
2022/08/13 02:39:49;;;;;;;;;;;;;;;27.63;34.57;100273.44;4978897;28;1007;-35
2022/08/13 02:42:15;;;;;;;;;;;;;;;27.63;34.41;100276.16;4979177;28;995;-35
2022/08/13 02:44:41;;;;;;;;;;;;;;;27.66;34.27;100273.03;4979029;28;1158;-35
2022/08/13 02:47:06;;;;;;;;;;;;;;;27.61;34.58;100270.94;4971814;28;921;-35
2022/08/13 02:49:32;;;;;;;;;;;;;;;27.68;34.50;100278.25;4978299;28;2453;-35
2022/08/13 02:51:59;;;;;;;;;;;;;;;27.65;34.82;100273.25;4978889;28;1906;-35
2022/08/13 02:54:25;;;;;;;;;;;;;;;27.71;34.85;100278.72;4978723;28;1138;-35
2022/08/13 02:56:50;;;;;;;;;;;;;;;27.61;34.67;100280.94;4978828;28;940;-34
2022/08/13 02:59:15;;;;;;;;;;;;;;;27.60;34.86;100282.78;4978172;28;1194;-35
2022/08/13 03:01:41;;;;;;;;;;;;;;;27.67;35.21;100280.13;4978791;28;1493;-35
2022/08/13 03:04:07;;;;;;;;;;;;;;;27.72;34.61;100277.72;4978652;28;1034;-34
2022/08/13 03:06:32;;;;;;;;;;;;;;;27.69;34.90;100278.13;4978327;28;1126;-35
2022/08/13 03:08:58;;;;;;;;;;;;;;;27.74;34.89;100291.03;4978588;28;1066;-35
2022/08/13 03:11:24;;;;;;;;;;;;;;;27.76;34.89;100291.63;4978406;28;1135;-34
2022/08/13 03:13:53;;;;;;;;;;;;;;;27.74;34.61;100289.13;4978557;28;1914;-35
2022/08/13 03:16:21;;;;;;;;;;;;;;;27.98;35.22;100291.56;4978231;28;1015;-35
2022/08/13 03:18:46;;;;;;;;;;;;;;;27.87;34.59;100295.66;4978935;28;1043;-35
2022/08/13 03:21:15;;;;;;;;;;;;;;;28.13;34.02;100296.00;4973839;28;2712;-37
2022/08/13 03:23:43;;;;;;;;;;;;;;;28.15;33.80;100299.31;4978240;28;1011;-37
2022/08/13 03:26:08;;;;;;;;;;;;;;;28.22;34.19;100300.19;4977635;28;975;-36
2022/08/13 03:28:34;;;;;;;;;;;;;;;28.17;34.16;100305.38;4977751;28;1162;-37
2022/08/13 03:30:59;;;;;;;;;;;;;;;28.21;34.64;100295.84;4978372;28;960;-36
2022/08/13 03:33:27;;;;;;;;;;;;;;;28.20;34.19;100294.16;4978009;28;1961;-37
2022/08/13 03:35:53;;;;;;;;;;;;;;;27.73;36.37;100295.59;4978230;28;987;-37
2022/08/13 03:38:18;;;;;;;;;;;;;;;27.51;37.99;100298.31;4978100;28;1090;-37
2022/08/13 03:41:02;;;;;;;;;;;;;;;27.35;38.50;100290.50;4977867;28;1518;-37
2022/08/13 03:43:27;;;;;;;;;;;;;;;27.25;39.91;100293.53;4977985;28;1003;-37
2022/08/13 03:45:54;;;;;;;;;;;;;;;27.47;38.09;100275.44;4977998;28;995;-37
2022/08/13 03:48:21;;;;;;;;;;;;;;;27.59;37.25;100283.81;4977503;28;1043;-37
2022/08/13 03:50:47;;;;;;;;;;;;;;;27.69;37.51;100283.50;4977324;28;2499;-37
2022/08/13 03:53:12;;;;;;;;;;;;;;;26.98;33.81;100277.91;4977600;28;1907;-37
2022/08/13 03:55:42;;;;;;;;;;;;;;;27.36;34.43;100289.50;4977860;28;1185;-37
2022/08/13 03:58:07;;;;;;;;;;;;;;;27.46;37.32;100283.75;4977851;28;1062;-37
2022/08/13 04:00:33;;;;;;;;;;;;;;;27.31;38.12;100278.44;4976682;28;1497;-38
2022/08/13 04:03:00;;;;;;;;;;;;;;;26.83;43.00;100274.44;4976846;28;1734;-39
2022/08/13 04:05:26;;;;;;;;;;;;;;;26.51;45.69;100283.69;4977441;28;1157;-37
2022/08/13 04:07:52;;;;;;;;;;;;;;;26.50;45.07;100270.38;4977647;28;1055;-36
2022/08/13 04:10:17;;;;;;;;;;;;;;;26.43;46.14;100272.16;4977730;28;1118;-37
2022/08/13 04:12:43;;;;;;;;;;;;;;;25.81;49.02;100273.22;4977454;28;1902;-38
2022/08/13 04:15:08;;;;;;;;;;;;;;;26.26;44.56;100278.59;4977175;28;1082;-37
2022/08/13 04:17:36;;;;;;;;;;;;;;;26.33;42.21;100272.47;4977082;28;1003;-36
2022/08/13 04:20:05;;;;;;;;;;;;;;;25.98;41.70;100278.44;4976800;28;1979;-38
2022/08/13 04:22:30;;;;;;;;;;;;;;;25.56;41.54;100266.22;4977476;28;1015;-36
2022/08/13 04:24:55;;;;;;;;;;;;;;;25.29;41.77;100276.56;4977415;28;1066;-36
2022/08/13 04:27:21;;;;;;;;;;;;;;;25.13;41.55;100268.66;4977382;28;1038;-36
2022/08/13 04:29:46;;;;;;;;;;;;;;;24.97;44.75;100269.63;4976787;28;1114;-37
2022/08/13 04:32:11;;;;;;;;;;;;;;;25.66;41.55;100268.69;4976957;28;1934;-37
2022/08/13 04:34:37;;;;;;;;;;;;;;;26.20;39.80;100268.56;4977217;28;1047;-37
2022/08/13 04:37:02;;;;;;;;;;;;;;;26.47;39.71;100262.69;4977107;28;960;-35
2022/08/13 04:39:27;;;;;;;;;;;;;;;26.85;38.85;100270.53;4976760;28;1015;-37
2022/08/13 04:41:53;;;;;;;;;;;;;;;26.89;37.93;100269.09;4977008;28;900;-37
2022/08/13 04:44:19;;;;;;;;;;;;;;;27.01;36.80;100271.28;4977103;28;1007;-36
2022/08/13 04:46:44;;;;;;;;;;;;;;;27.01;36.66;100273.97;4977237;28;1031;-37
2022/08/13 04:49:11;;;;;;;;;;;;;;;26.98;42.32;100274.38;4977340;28;1836;-35
2022/08/13 04:51:36;;;;;;;;;;;;;;;25.83;41.53;100278.44;4973609;28;955;-34
2022/08/13 04:54:02;;;;;;;;;;;;;;;23.88;44.97;100274.66;4976861;28;1910;-37
2022/08/13 04:56:27;;;;;;;;;;;;;;;22.89;47.23;100271.88;4976965;28;1114;-38
2022/08/13 04:58:52;;;;;;;;;;;;;;;23.50;48.92;100278.78;4977194;28;1070;-37
2022/08/13 05:01:18;;;;;;;;;;;;;;;25.07;42.56;100281.00;4976671;28;1142;-37
2022/08/13 05:03:45;;;;;;;;;;;;;;;25.55;43.21;100278.03;4977137;28;1455;-37
2022/08/13 05:06:17;;;;;;;;;;;;;;;23.96;46.90;100280.00;4976363;28;1086;-37
2022/08/13 05:08:43;;;;;;;;;;;;;;;23.34;48.43;100275.09;4973009;28;920;-37
2022/08/13 05:11:12;;;;;;;;;;;;;;;22.79;50.08;100280.09;4974995;28;1327;-37
2022/08/13 05:13:38;;;;;;;;;;;;;;;22.53;51.26;100278.34;4976511;28;1884;-36
2022/08/13 05:16:04;;;;;;;;;;;;;;;23.72;48.12;100281.78;4975896;28;1409;-38
2022/08/13 05:18:30;;;;;;;;;;;;;;;25.14;44.47;100273.84;4976289;28;1086;-37
2022/08/13 05:20:56;;;;;;;;;;;;;;;24.90;46.07;100273.03;4972042;28;2513;-38
2022/08/13 05:23:21;;;;;;;;;;;;;;;23.38;49.71;100267.53;4978321;28;1015;-37
2022/08/13 05:25:47;;;;;;;;;;;;;;;22.94;50.51;100269.53;4975675;28;975;-35
2022/08/13 05:28:12;;;;;;;;;;;;;;;22.61;51.61;100258.78;4980552;28;987;-33
2022/08/13 05:30:38;;;;;;;;;;;;;;;24.33;44.43;100257.06;4968374;28;1161;-42
2022/08/13 05:33:13;;;;;;;;;;;;;;;25.60;42.08;100260.47;4980250;28;1910;-43
2022/08/13 05:35:40;;;;;;;;;;;;;;;24.14;47.16;100255.59;4978876;28;1130;-42
2022/08/13 05:38:05;;;;;;;;;;;;;;;22.89;49.49;100257.66;4980219;28;1023;-42
2022/08/13 05:40:31;;;;;;;;;;;;;;;22.80;52.88;100254.97;4980354;28;1106;-43
2022/08/13 05:42:59;;;;;;;;;;;;;;;24.35;45.44;100251.50;4980210;28;912;-42
2022/08/13 05:45:25;;;;;;;;;;;;;;;23.55;48.02;100252.28;4979932;28;963;-42
2022/08/13 05:47:51;;;;;;;;;;;;;;;22.69;49.95;100233.84;4980234;28;1102;-43
2022/08/13 05:50:16;;;;;;;;;;;;;;;23.14;49.78;100239.69;4977148;28;2441;-42
2022/08/13 05:52:42;;;;;;;;;;;;;;;24.92;44.77;100237.88;4980113;28;1914;-43
2022/08/13 05:55:09;;;;;;;;;;;;;;;23.34;48.77;100237.50;4979622;28;905;-43
2022/08/13 05:57:34;;;;;;;;;;;;;;;22.62;50.55;100233.66;4980040;28;1086;-43
2022/08/13 06:05:27;;;;;;;;;;;;;;;22.54;50.39;100237.13;4976676;28;1027;-46
2022/08/13 06:07:53;;;;;;;;;;;;;;;23.92;47.04;100236.53;4979235;28;983;-45
2022/08/13 06:10:18;;;;;;;;;;;;;;;23.11;49.01;100240.03;4979708;28;1365;-46
2022/08/13 06:12:44;;;;;;;;;;;;;;;23.47;50.10;100237.00;4979469;28;1985;-46
2022/08/13 06:15:10;;;;;;;;;;;;;;;24.55;45.87;100230.38;4979550;28;1114;-47
2022/08/13 06:17:35;;;;;;;;;;;;;;;22.29;51.47;100228.19;4979437;28;965;-47
2022/08/13 06:20:04;;;;;;;;;;;;;;;24.07;46.31;100233.16;4975355;28;2353;-45
2022/08/13 06:22:29;;;;;;;;;;;;;;;23.35;48.44;100235.66;4979759;28;1102;-45
2022/08/13 06:24:55;;;;;;;;;;;;;;;23.11;51.61;100232.84;4976402;28;1062;-45
2022/08/13 06:27:24;;;;;;;;;;;;;;;24.64;44.26;100227.66;4976025;28;1047;-47
2022/08/13 06:29:49;;;;;;;;;;;;;;;22.45;50.42;100232.75;4977671;28;1173;-47
2022/08/13 06:32:15;;;;;;;;;;;;;;;24.01;46.49;100231.13;4965834;28;1899;-47
2022/08/13 06:34:41;;;;;;;;;;;;;;;23.79;47.48;100233.59;4978554;28;1015;-45
2022/08/13 06:37:07;;;;;;;;;;;;;;;22.55;52.79;100222.72;4979522;28;971;-47
2022/08/13 06:39:32;;;;;;;;;;;;;;;24.38;45.70;100224.28;4979384;28;1142;-46
2022/08/13 06:42:04;;;;;;;;;;;;;;;23.27;49.32;100228.47;4978450;28;1247;-48
2022/08/13 06:44:32;;;;;;;;;;;;;;;22.87;54.43;100220.28;4979356;28;1082;-46
2022/08/13 06:47:00;;;;;;;;;;;;;;;24.74;44.77;100230.91;4978957;28;971;-46
2022/08/13 06:49:26;;;;;;;;;;;;;;;22.78;50.74;100230.16;4975964;28;2438;-48
2022/08/13 06:51:51;;;;;;;;;;;;;;;22.43;55.44;100230.25;4978907;28;976;-44
2022/08/13 06:54:17;;;;;;;;;;;;;;;24.45;46.00;100233.31;4976718;28;1930;-45
2022/08/13 06:56:42;;;;;;;;;;;;;;;23.15;50.23;100229.81;4979113;28;896;-46
2022/08/13 06:59:07;;;;;;;;;;;;;;;22.40;54.44;100225.22;4976984;28;1078;-46
2022/08/13 07:01:32;;;;;;;;;;;;;;;24.51;45.88;100226.38;4969243;28;984;-46
2022/08/13 07:03:58;;;;;;;;;;;;;;;23.45;49.47;100227.47;4972628;28;1096;-46
2022/08/13 07:06:26;;;;;;;;;;;;;;;22.26;53.16;100226.66;4978482;28;1051;-46
2022/08/13 07:08:57;;;;;;;;;;;;;;;24.24;46.69;100233.91;4979208;28;979;-45
2022/08/13 07:11:29;;;;;;;;;;;;;;;23.52;49.12;100231.16;4978519;28;1125;-45
2022/08/13 07:13:55;;;;;;;;;;;;;;;22.18;52.96;100227.50;4971043;28;1961;-45
2022/08/13 07:16:22;;;;;;;;;;;;;;;22.46;56.78;100227.22;4977148;28;1295;-45
2022/08/13 07:18:49;;;;;;;;;;;;;;;24.72;45.98;100222.19;4977595;28;1346;-45
2022/08/13 07:21:17;;;;;;;;;;;;;;;23.21;50.37;100221.09;4978301;28;932;-45
2022/08/13 07:23:42;;;;;;;;;;;;;;;22.16;53.30;100208.06;4978814;28;1003;-46
2022/08/13 07:26:08;;;;;;;;;;;;;;;22.85;53.58;100207.03;4978670;28;979;-46
2022/08/13 07:28:34;;;;;;;;;;;;;;;24.96;44.92;100211.47;4977655;28;1075;-46
2022/08/13 07:31:00;;;;;;;;;;;;;;;23.12;50.73;100210.34;4975223;28;829;-46
2022/08/13 07:33:26;;;;;;;;;;;;;;;22.08;53.53;100206.19;4974102;28;1894;-47
2022/08/13 07:35:51;;;;;;;;;;;;;;;21.78;54.17;100211.09;4977845;28;1511;-36
2022/08/13 07:38:16;;;;;;;;;;;;;;;23.48;49.76;100211.00;4977825;28;1031;-36
2022/08/13 07:40:43;;;;;;;;;;;;;;;24.71;47.12;100215.13;4977622;28;1146;-36
2022/08/13 07:43:09;;;;;;;;;;;;;;;22.54;51.83;100218.34;4960322;28;971;-35
2022/08/13 07:45:35;;;;;;;;;;;;;;;22.09;54.59;100209.69;4975082;28;1109;-36
2022/08/13 07:48:00;;;;;;;;;;;;;;;24.26;47.67;100207.69;4977804;28;1166;-35
2022/08/13 07:50:25;;;;;;;;;;;;;;;23.57;49.90;100206.47;4978114;28;2565;-36
2022/08/13 07:52:58;;;;;;;;;;;;;;;22.35;53.17;100203.41;4977593;28;1902;-37
2022/08/13 07:55:25;;;;;;;;;;;;;;;21.87;54.06;100206.63;4977642;28;864;-37
2022/08/13 07:57:50;;;;;;;;;;;;;;;23.15;52.53;100206.50;4977886;28;980;-37
2022/08/13 08:00:25;;;;;;;;;;;;;;;24.85;47.35;100199.22;4975869;28;1016;-36
2022/08/13 08:02:54;;;;;;;;;;;;;;;22.53;52.37;100203.28;4977758;28;1134;-36
2022/08/13 08:05:22;;;;;;;;;;;;;;;22.28;55.88;100192.53;4978201;28;1262;-36
2022/08/13 08:07:49;;;;;;;;;;;;;;;24.62;46.98;100197.41;4977376;28;1497;-37
2022/08/13 08:10:14;;;;;;;;;;;;;;;23.46;50.36;100188.88;4973592;28;1118;-37
2022/08/13 08:12:40;;;;;;;;;;;;;;;22.46;53.26;100186.19;4977729;28;1906;-36
2022/08/13 08:15:06;;;;;;;;;;;;;;;21.99;54.33;100183.03;4975210;28;1320;-35
2022/08/13 08:17:31;;;;;;;;;;;;;;;21.97;55.56;100179.72;4977646;28;1000;-36
2022/08/13 08:19:56;;;;;;;;;;;;;;;21.99;55.74;100177.69;4971600;28;1815;-37
2022/08/13 08:22:22;;;;;;;;;;;;;;;24.29;49.33;100183.16;4977339;28;1007;-34
2022/08/13 08:24:50;;;;;;;;;;;;;;;24.32;49.03;100181.97;4972769;28;1371;-36
2022/08/13 08:27:16;;;;;;;;;;;;;;;22.82;53.19;100171.66;4977374;28;1150;-37
2022/08/13 08:29:42;;;;;;;;;;;;;;;22.50;54.48;100177.63;4976887;28;1074;-36
2022/08/13 08:32:10;;;;;;;;;;;;;;;22.37;55.02;100177.31;4977321;28;1154;-35
2022/08/13 08:34:36;;;;;;;;;;;;;;;22.18;55.34;100171.22;4977355;28;938;-35
2022/08/13 08:37:02;;;;;;;;;;;;;;;22.25;55.41;100171.41;4977297;28;1134;-34
2022/08/13 08:44:58;;;;;;;;;;;;;;;23.02;51.85;100156.06;4977155;28;900;-37
2022/08/13 08:47:27;;;;;;;;;;;;;;;22.46;54.23;100156.69;4977027;28;1023;-36
2022/08/13 08:49:53;;;;;;;;;;;;;;;22.30;54.56;100149.47;4974948;28;2371;-36
2022/08/13 08:52:18;;;;;;;;;;;;;;;22.21;54.91;100153.97;4963900;28;1902;-35
2022/08/13 08:54:45;;;;;;;;;;;;;;;21.94;55.44;100146.03;4976996;28;1051;-34
2022/08/13 08:57:11;;;;;;;;;;;;;;;22.12;56.83;100145.94;4976892;28;1031;-34
2022/08/13 08:59:39;;;;;;;;;;;;;;;24.55;49.14;100147.03;4980455;28;991;-35
2022/08/13 09:02:16;;;;;;;;;;;;;;;23.44;50.44;100137.22;4981087;28;964;-37
2022/08/13 09:04:41;;;;;;;;;;;;;;;22.17;54.19;100131.22;4981002;28;1209;-35
2022/08/13 09:07:07;;;;;;;;;;;;;;;21.71;55.86;100130.56;4977372;28;1402;-37
2022/08/13 09:09:32;;;;;;;;;;;;;;;21.57;55.88;100120.47;4978935;28;1129;-36
2022/08/13 09:11:57;;;;;;;;;;;;;;;23.22;53.10;100126.19;4972975;28;1079;-37
2022/08/13 09:14:26;;;;;;;;;;;;;;;24.05;49.35;100125.00;4980215;28;1922;-36
2022/08/13 09:16:52;;;;;;;;;;;;;;;22.10;54.36;100123.84;4980639;28;1024;-38
2022/08/13 09:19:17;;;;;;;;;;;;;;;21.56;55.85;100106.25;4974809;28;2400;-35
2022/08/13 09:21:46;;;;;;;;;;;;;;;22.97;53.18;100113.63;4980591;28;1023;-37
2022/08/13 09:24:14;;;;;;;;;;;;;;;24.06;49.46;100115.91;4980727;28;1011;-36
2022/08/13 09:26:40;;;;;;;;;;;;;;;22.07;54.92;100097.38;4980599;28;1058;-38
2022/08/13 09:29:05;;;;;;;;;;;;;;;21.58;56.03;100101.56;4978102;28;1092;-36
2022/08/13 09:31:31;;;;;;;;;;;;;;;21.30;56.54;100101.78;4980350;28;1035;-37
2022/08/13 09:33:56;;;;;;;;;;;;;;;23.27;51.89;100106.88;4979987;28;1898;-37
2022/08/13 09:36:22;;;;;;;;;;;;;;;23.52;50.38;100096.91;4980784;28;949;-37
2022/08/13 09:38:48;;;;;;;;;;;;;;;21.82;54.74;100105.34;4980727;28;987;-36
2022/08/13 09:41:17;;;;;;;;;;;;;;;22.51;55.66;100098.06;4980154;28;1078;-36
2022/08/13 09:43:44;;;;;;;;;;;;;;;24.31;49.48;100094.28;4979913;28;1019;-36
2022/08/13 09:46:09;;;;;;;;;;;;;;;22.12;54.45;100084.31;4980124;28;1016;-36
2022/08/13 09:48:35;;;;;;;;;;;;;;;21.52;56.33;100086.16;4979968;28;971;-38
2022/08/13 09:51:03;;;;;;;;;;;;;;;21.32;56.40;100088.25;4979589;28;2585;-37
2022/08/13 09:53:28;;;;;;;;;;;;;;;23.23;52.65;100087.59;4980119;28;1949;-36
2022/08/13 09:55:54;;;;;;;;;;;;;;;23.53;50.58;100090.53;4979079;28;1304;-37
2022/08/13 09:58:20;;;;;;;;;;;;;;;21.89;54.74;100074.25;4979659;28;1145;-38
2022/08/13 10:00:46;;;;;;;;;;;;;;;21.41;56.88;100080.09;4979890;28;1078;-38
2022/08/13 10:03:12;;;;;;;;;;;;;;;23.59;50.58;100076.41;4979860;28;1118;-38
2022/08/13 10:05:38;;;;;;;;;;;;;;;22.80;52.01;100075.31;4979695;28;1011;-38
2022/08/13 10:08:06;;;;;;;;;;;;;;;21.63;55.09;100072.47;4979720;28;1011;-37
2022/08/13 10:10:31;;;;;;;;;;;;;;;21.42;57.28;100064.84;4978882;28;1343;-36
2022/08/13 10:12:58;;;;;;;;;;;;;;;21.62;57.62;100069.97;4979114;28;1967;-39
2022/08/13 10:15:24;;;;;;;;;;;;;;;21.60;57.86;100066.63;4969917;28;1513;-38
2022/08/13 10:17:56;;;;;;;;;;;;;;;23.52;53.80;100063.88;4979725;28;979;-39
2022/08/13 10:20:22;;;;;;;;;;;;;;;23.53;51.49;100076.25;4978517;28;1809;-37
2022/08/13 10:22:47;;;;;;;;;;;;;;;21.86;54.46;100063.88;4979569;28;971;-39
2022/08/13 10:25:13;;;;;;;;;;;;;;;21.58;56.75;100053.41;4979591;28;1232;-39
2022/08/13 10:27:38;;;;;;;;;;;;;;;23.59;51.33;100064.81;4977206;28;1070;-39
2022/08/13 10:30:04;;;;;;;;;;;;;;;23.10;53.74;100069.38;4979457;28;1184;-39
2022/08/13 10:32:30;;;;;;;;;;;;;;;22.08;55.94;100066.91;4978838;28;1891;-38
2022/08/13 10:34:55;;;;;;;;;;;;;;;21.79;56.89;100068.19;4979487;28;983;-38
2022/08/13 10:37:21;;;;;;;;;;;;;;;22.09;56.89;100059.69;4979308;28;1162;-39
2022/08/13 10:39:47;;;;;;;;;;;;;;;22.14;57.38;100058.22;4979450;28;1052;-39
2022/08/13 10:42:12;;;;;;;;;;;;;;;22.38;57.34;100053.88;4978640;28;1110;-37
2022/08/13 10:44:38;;;;;;;;;;;;;;;23.97;52.76;100053.38;4961518;28;1051;-38
2022/08/13 10:47:04;;;;;;;;;;;;;;;24.90;50.56;100056.94;4979206;28;1023;-38
2022/08/13 10:49:29;;;;;;;;;;;;;;;23.24;53.11;100049.84;4977343;28;1807;-38
2022/08/13 10:51:54;;;;;;;;;;;;;;;22.59;55.09;100059.69;4978864;28;1082;-39
2022/08/13 10:54:21;;;;;;;;;;;;;;;22.49;55.97;100066.09;4978876;28;1895;-37
2022/08/13 10:56:46;;;;;;;;;;;;;;;22.68;55.74;100063.25;4976874;28;821;-37
2022/08/13 10:59:12;;;;;;;;;;;;;;;22.71;56.17;100054.84;4978543;28;1094;-37
2022/08/13 11:01:38;;;;;;;;;;;;;;;22.92;55.61;100062.34;4978562;28;1007;-35
2022/08/13 11:04:06;;;;;;;;;;;;;;;22.90;55.44;100050.97;4978739;28;959;-35
2022/08/13 11:06:31;;;;;;;;;;;;;;;23.07;55.09;100051.75;4977367;28;1247;-36
2022/08/13 11:08:59;;;;;;;;;;;;;;;22.87;55.34;100044.09;4978176;28;835;-37
2022/08/13 11:11:24;;;;;;;;;;;;;;;22.88;55.35;100058.34;4978510;28;1079;-36
2022/08/13 11:13:50;;;;;;;;;;;;;;;22.85;55.05;100046.13;4978454;28;1957;-36
2022/08/13 11:18:59;;;;;;;;;;;;;;;22.82;55.55;100041.09;4977096;28;2331;-36
2022/08/13 11:21:25;;;;;;;;;;;;;;;22.82;55.03;100038.41;4974896;28;853;-36
2022/08/13 11:23:50;;;;;;;;;;;;;;;22.52;56.03;100038.13;4978461;28;1146;-36
2022/08/13 11:26:16;;;;;;;;;;;;;;;22.41;56.58;100039.28;4978835;28;1110;-37
2022/08/13 11:28:41;;;;;;;;;;;;;;;22.79;56.43;100038.75;4978622;28;960;-37
2022/08/13 11:31:06;;;;;;;;;;;;;;;22.80;55.38;100035.09;4978385;28;1051;-38
2022/08/13 11:33:31;;;;;;;;;;;;;;;22.11;56.01;100041.63;4978048;28;1894;-38
2022/08/13 11:35:57;;;;;;;;;;;;;;;21.84;56.49;100030.22;4978456;28;1000;-38
2022/08/13 11:38:22;;;;;;;;;;;;;;;21.86;56.80;100036.25;4978469;28;1058;-37
2022/08/13 11:40:48;;;;;;;;;;;;;;;22.07;57.14;100041.13;4978320;28;1200;-40
2022/08/13 11:43:14;;;;;;;;;;;;;;;22.23;56.76;100042.13;4978188;28;1023;-37
2022/08/13 11:45:39;;;;;;;;;;;;;;;24.31;51.30;100044.06;4973924;28;892;-39
2022/08/13 11:48:08;;;;;;;;;;;;;;;24.37;51.34;100044.34;4978047;28;1228;-37
2022/08/13 11:50:33;;;;;;;;;;;;;;;22.90;54.58;100032.22;4975216;28;2472;-37
2022/08/13 11:52:58;;;;;;;;;;;;;;;22.70;55.14;100031.75;4972599;28;1955;-37
2022/08/13 11:55:24;;;;;;;;;;;;;;;22.69;55.80;100032.75;4977186;28;1272;-38
2022/08/13 11:57:57;;;;;;;;;;;;;;;25.19;48.91;100036.47;4975933;28;1065;-38
2022/08/13 12:00:23;;;;;;;;;;;;;;;26.56;45.57;100034.13;4968734;28;1217;-38
2022/08/13 12:02:48;;;;;;;;;;;;;;;27.19;43.13;100032.44;4977130;28;1339;-38
2022/08/13 12:05:13;;;;;;;;;;;;;;;27.68;42.71;100035.06;4977829;28;1015;-38
2022/08/13 12:07:40;;;;;;;;;;;;;;;27.86;42.59;100032.66;4977708;28;1035;-39
2022/08/13 12:10:05;;;;;;;;;;;;;;;27.97;42.50;100038.50;4976595;28;1185;-38
2022/08/13 12:12:30;;;;;;;;;;;;;;;28.06;42.72;100034.53;4971535;28;1970;-38
2022/08/13 12:14:56;;;;;;;;;;;;;;;28.05;43.12;100038.28;4977692;28;1383;-38
2022/08/13 12:17:21;;;;;;;;;;;;;;;28.19;42.28;100035.59;4977634;28;983;-38
2022/08/13 12:19:46;;;;;;;;;;;;;;;28.39;42.22;100032.91;4977630;28;2480;-39
2022/08/13 12:22:12;;;;;;;;;;;;;;;28.49;42.50;100035.19;4976569;28;1025;-39
2022/08/13 12:24:37;;;;;;;;;;;;;;;28.58;42.23;100042.03;4977583;28;1054;-38
2022/08/13 12:27:03;;;;;;;;;;;;;;;28.55;42.32;100036.22;4977380;28;928;-38
2022/08/13 12:29:29;;;;;;;;;;;;;;;28.74;41.79;100034.53;4977780;28;1035;-37
2022/08/13 12:31:54;;;;;;;;;;;;;;;28.87;41.65;100041.78;4976661;28;1027;-37
2022/08/13 12:34:19;;;;;;;;;;;;;;;28.90;41.66;100054.06;4976889;28;1963;-37
2022/08/13 12:36:45;;;;;;;;;;;;;;;28.94;41.48;100045.31;4977315;28;1024;-37
2022/08/13 12:39:10;;;;;;;;;;;;;;;28.89;41.88;100047.81;4976875;28;1114;-37
2022/08/13 12:41:35;;;;;;;;;;;;;;;28.88;41.40;100053.44;4976810;28;1067;-38
2022/08/13 12:44:01;;;;;;;;;;;;;;;28.75;40.99;100043.47;4976940;28;1181;-37
2022/08/13 12:46:26;;;;;;;;;;;;;;;28.76;41.63;100037.03;4977252;28;1110;-38
2022/08/13 12:48:51;;;;;;;;;;;;;;;28.81;41.07;100039.94;4976527;28;1934;-38
2022/08/13 12:51:16;;;;;;;;;;;;;;;28.92;41.26;100036.56;4974366;28;1151;-37
2022/08/13 12:53:42;;;;;;;;;;;;;;;28.90;41.49;100029.69;4976778;28;1957;-37
2022/08/13 12:56:07;;;;;;;;;;;;;;;28.84;40.87;100031.38;4976610;28;1177;-38
2022/08/13 12:58:32;;;;;;;;;;;;;;;28.87;41.27;100027.41;4976841;28;936;-37
2022/08/13 13:00:58;;;;;;;;;;;;;;;28.99;41.51;100030.31;4977250;28;987;-37